Aeroporto :
LOGIN :

Iscrizione | Disclaimer

   EN    FR    IT 

 










Sommario :    VFR   VFR Marginale   IFR   IFR Intensivo   IFR Molto Intensivo
Visibilità : 
Base nubi : 
>= 8 km
>= 3000ft
5 / 8 km
1000 / 3000 ft
1500m / 5 km
500 / 1000 ft
800 / 1500m
200 / 500 ft
< 800m
< 200 ft
Simboli :   Temporali  Nebbia  Neve Forte  Precipitazioni Forti  Vento > 20 kt
SIGMETs :   Varie  Temporali  Ghiacco  Turbolenza  Onda orograficha  Ceneri Vulcaniche






- Altitudine del aeroporto : 52 ft
- Codice IATA : IOM


EGNS - Isle of Man

ULTIMO METAR :
  • 300950Z 26022KT 9999 FEW010 SCT015 BKN025 10/08 Q1020 TEMPO 6000 -RADZ BKN008

METARs OBSOLETI :
  • 300920Z 27021KT 9999 FEW010 SCT015 BKN035 10/08 Q1020 TEMPO 6000 -RADZ BKN008
  • 300850Z 26018KT 9999 -RA FEW009 BKN011 BKN028 09/08 Q1021 TEMPO 4000 -RADZ BKN008
  • 300820Z 26018KT 3200 RA SCT007 BKN011 OVC025 09/08 Q1021 NOSIG
  • 300750Z 27018KT 6000 RA FEW007 OVC010 09/08 Q1022 NOSIG
  • 300720Z 26015KT 9000 -RA OVC013 09/07 Q1022 NOSIG
  • 300650Z 25016KT 9999 -RA FEW008 BKN014 09/07 Q1021 NOSIG

TAF TAF EGNS
Valido dal 30 a 09 ore il 30 a 18 ore UTC


300800Z 3009/3018 27020G30KT 9999 FEW008 BKN0013
TEMPO 3009/3015 4000 -RADZ BKN008
BECMG 3013/3015 33017KT FEW013



MetMap, La meteo Aeronautica in un colpo d'occhio ! - Copyright ORBIFLY Dicembre 2007 - Disclaimer

ORBIFLY MET'MAP TEAM :

Programmazione e sviluppo : Alexandra Zaïnal
Concezione : Baudouin d'Aumeries
Aiuto per la programmazione : Marc-Olivier Méhu
Supporto tecnico e logistico : Manuel Goepfert
Aiuto per la traduzione : Arnaldo La Scala

Contatto : metmap@orbifly.com




FONTI E CREDITI :

   NOAA